West Yellowstone, MT (59758)

4:27 PM MDT on August 29, 2014 (GMT -0600)
MesoWest WEST YELLOWSTONE MT US SNOTEL | Change Station
CLOSE
Current Station
Personal Weather Station
Location: West Yellowstone, MT
Elevation: 6700 ft
Nearby Weather Stations

Elev 6700 ft 44.66 °N, 111.09 °W | Updated 44 days ago

Clear
Clear
66 °F
Feels Like 66 °F
N
11
Wind Variable Wind from SSW
Gusts 17 mph

Today
High -- | Low -- °F
--% Chance of Precip.
Yesterday
High -- | Low -- °F
Precip. -- in
6:43 AM 8:06 PM
Waxing Crescent, 17% visible
Pressure 30.12 in
Visibility 10.0 miles
Clouds Few 11000 ft
Dew Point 41 °F
Humidity 39%
Rainfall -999.00 in
Snow Depth Not available.
UV 5 out of 12
Pollen 7.30 out of 12
Air Quality Not available.
Flu Activity Not available.
METAR KWYS 292210Z AUTO 24011G21KT 10SM FEW110 22/03 A3012 RMK AO2

More Conditions Fewer Conditions

Pressure 30.12 in
Visibility 10.0 miles
Clouds Few 11000 ft
Dew Point 41 °F
Humidity 39%
Rainfall -999.00 in
Snow Depth Not available.
UV 5 out of 12
Pollen 7.30 out of 12
Air Quality Not available.
Flu Activity Not available.
METAR KWYS 292210Z AUTO 24011G21KT 10SM FEW110 22/03 A3012 RMK AO2

More Conditions Fewer Conditions

10-Day Weather Forecast

Almanac

Astronomy

Aug. 29, 2014 Rise Set
Actual Time 6:43 AM MDT 8:06 PM MDT
Civil Twilight 6:13 AM MDT 8:36 PM MDT
Nautical Twilight 5:36 AM MDT 9:13 PM MDT
Astronomical Twilight 4:57 AM MDT 9:52 PM MDT
Moon 10:47 AM MDT 9:54 PM MDT
Length of Visible Light 14h 23m
Length of Day
13h 23m
Tomorrow will be 2m 57s shorter.
Waxing Crescent, 17% of the Moon is Illuminated
Today
Waxing Crescent
Sep 2
First Quarter
Sep 8
Full
Sep 15
Last Quarter
Sep 24
New

Today's Extremes

State Highs State Lows

Community

WunderPhotos

Upload Photos

1,748,360 photos uploaded!

Nearby

Snow Depth

Station Depth Elevation
Northeast Entrance 0 in 7350 ft
White Mill 1 in 8700 ft
Brackett Creek 0 in 7320 ft
Porcupine 0 in 6500 ft
Lemhi Ridge 0 in 8100 ft

Earthquake Activity

City Distance Mag. Time & Date
No recent earthquake activity has been reported nearby.
Minimum magnitude displayed is 2.5.

Coastal Water Temperatures

Place Temperature
No Stations Reporting

Nearby Weather Stations